createdAt,value
2023-07-14T00:01:58.648Z,99.90
2023-07-14T00:04:31.090Z,99.90
2023-07-14T00:06:58.031Z,99.90
2023-07-14T00:09:27.153Z,99.90
2023-07-14T00:11:54.645Z,99.90
2023-07-14T00:14:21.775Z,99.90
2023-07-14T00:16:48.916Z,99.90
2023-07-14T00:19:18.020Z,99.90
2023-07-14T00:21:47.087Z,99.90
2023-07-14T00:24:16.266Z,99.90
2023-07-14T00:26:46.336Z,99.90
2023-07-14T00:29:22.004Z,99.90
2023-07-14T00:31:48.771Z,99.90
2023-07-14T00:34:15.529Z,99.90
2023-07-14T00:36:42.234Z,99.90
2023-07-14T00:39:08.992Z,99.90
2023-07-14T00:41:35.932Z,99.90
2023-07-14T00:44:03.026Z,99.90
2023-07-14T00:46:32.261Z,99.90
2023-07-14T00:49:06.483Z,99.90
2023-07-14T00:51:35.582Z,99.90
2023-07-14T00:54:02.418Z,99.90
2023-07-14T00:56:46.925Z,99.90
2023-07-14T00:59:16.402Z,99.90
2023-07-14T01:02:17.072Z,99.90
2023-07-14T01:05:00.466Z,99.90
2023-07-14T01:07:36.552Z,99.90
2023-07-14T01:10:04.425Z,99.90
2023-07-14T01:12:34.490Z,99.90
2023-07-14T01:15:04.000Z,99.90
2023-07-14T01:17:31.207Z,99.90
2023-07-14T01:20:02.438Z,99.90
2023-07-14T01:22:45.097Z,99.90
2023-07-14T01:25:39.020Z,99.90
2023-07-14T01:28:09.079Z,99.90
2023-07-14T01:30:37.581Z,99.90
2023-07-14T01:33:06.406Z,99.90
2023-07-14T01:35:37.253Z,99.90
2023-07-14T01:38:04.144Z,99.90
2023-07-14T01:40:34.013Z,99.90
2023-07-14T01:43:03.730Z,99.90
2023-07-14T01:45:37.198Z,99.90
2023-07-14T01:48:06.660Z,99.90
2023-07-14T01:50:36.926Z,99.90
2023-07-14T01:53:13.402Z,99.90
2023-07-14T01:55:43.170Z,99.90
2023-07-14T01:58:21.513Z,99.90
2023-07-14T02:00:52.264Z,99.90
2023-07-14T02:03:36.276Z,99.90
2023-07-14T02:06:03.945Z,99.90
2023-07-14T02:08:30.914Z,99.90
2023-07-14T02:10:57.724Z,99.90
2023-07-14T02:13:24.997Z,99.90
2023-07-14T02:15:53.222Z,99.90
2023-07-14T02:18:24.985Z,99.90
2023-07-14T02:20:53.129Z,99.90
2023-07-14T02:23:23.291Z,99.90
2023-07-14T02:26:05.216Z,99.90
2023-07-14T02:28:34.024Z,99.90
2023-07-14T02:31:23.029Z,99.90
2023-07-14T02:33:54.308Z,99.90
2023-07-14T02:36:31.106Z,99.90
2023-07-14T02:38:57.840Z,99.90
2023-07-14T02:41:29.169Z,99.90
2023-07-14T02:44:08.096Z,99.90
2023-07-14T02:47:15.462Z,99.90
2023-07-14T02:49:43.152Z,99.90
2023-07-14T02:52:09.855Z,99.90
2023-07-14T02:54:36.558Z,99.90
2023-07-14T02:57:04.464Z,99.90
2023-07-14T02:59:31.200Z,99.90
2023-07-14T03:01:57.971Z,99.90
2023-07-14T03:04:24.860Z,99.90
2023-07-14T03:06:51.651Z,99.90
2023-07-14T03:09:18.414Z,99.90
2023-07-14T03:11:45.177Z,99.90
2023-07-14T03:14:11.902Z,99.90
2023-07-14T03:16:39.822Z,99.90
2023-07-14T03:19:06.647Z,99.90
2023-07-14T03:21:33.331Z,99.90
2023-07-14T03:24:00.269Z,99.90
2023-07-14T03:26:27.304Z,99.90
2023-07-14T03:28:54.537Z,99.90
2023-07-14T03:31:21.330Z,99.90
2023-07-14T03:33:48.069Z,99.90
2023-07-14T03:36:14.897Z,99.90
2023-07-14T03:38:45.915Z,99.90
2023-07-14T03:41:15.367Z,99.90
2023-07-14T03:43:42.665Z,99.90
2023-07-14T03:46:09.497Z,99.90
2023-07-14T03:48:36.330Z,99.90
2023-07-14T03:51:04.126Z,99.90
2023-07-14T03:53:30.909Z,99.90
2023-07-14T03:55:58.429Z,99.90
2023-07-14T03:58:25.176Z,99.90
2023-07-14T04:00:51.875Z,99.90
2023-07-14T04:03:18.644Z,99.90
2023-07-14T04:05:46.797Z,99.90
2023-07-14T04:08:13.728Z,99.90
2023-07-14T04:10:40.475Z,99.90
2023-07-14T04:13:07.187Z,99.90
2023-07-14T04:15:33.898Z,99.90
2023-07-14T04:18:00.672Z,99.90
2023-07-14T04:20:27.397Z,99.90
2023-07-14T04:22:54.373Z,99.90
2023-07-14T04:25:21.227Z,99.90
2023-07-14T04:27:47.947Z,99.90
2023-07-14T04:30:14.771Z,99.90
2023-07-14T04:32:41.752Z,99.90
2023-07-14T04:35:08.896Z,99.90
2023-07-14T04:37:35.682Z,99.90
2023-07-14T04:40:02.492Z,99.90
2023-07-14T04:42:29.174Z,99.90
2023-07-14T04:44:55.939Z,99.90
2023-07-14T04:47:22.828Z,99.90
2023-07-14T04:49:49.647Z,99.90
2023-07-14T04:52:16.380Z,99.90
2023-07-14T04:54:43.233Z,99.90
2023-07-14T04:57:10.034Z,99.90
2023-07-14T04:59:36.929Z,99.90
2023-07-14T05:02:03.961Z,99.90
2023-07-14T05:04:30.750Z,99.90
2023-07-14T05:06:57.535Z,99.90
2023-07-14T05:09:25.514Z,99.90
2023-07-14T05:11:52.398Z,99.90
2023-07-14T05:14:19.097Z,99.90
2023-07-14T05:16:45.954Z,99.90
2023-07-14T05:19:12.744Z,99.90
2023-07-14T05:21:39.482Z,99.90
2023-07-14T05:24:06.339Z,99.90
2023-07-14T05:26:33.107Z,99.90
2023-07-14T05:28:59.860Z,99.90
2023-07-14T05:31:26.646Z,99.90
2023-07-14T05:33:53.441Z,99.90
2023-07-14T05:36:20.205Z,99.90
2023-07-14T05:38:47.030Z,99.90
2023-07-14T05:41:13.752Z,99.90
2023-07-14T05:43:40.504Z,99.90
2023-07-14T05:46:07.258Z,99.90
2023-07-14T05:48:34.005Z,99.90
2023-07-14T05:51:00.836Z,99.90
2023-07-14T05:53:27.586Z,99.90
2023-07-14T05:55:54.360Z,99.90
2023-07-14T05:58:21.062Z,99.90
2023-07-14T06:00:47.895Z,99.90
2023-07-14T06:03:17.200Z,99.90
2023-07-14T06:05:44.283Z,99.90
2023-07-14T06:08:11.069Z,99.90
2023-07-14T06:10:37.873Z,99.90
2023-07-14T06:13:04.860Z,99.90
2023-07-14T06:15:31.621Z,99.90
2023-07-14T06:17:58.439Z,99.90
2023-07-14T06:20:28.592Z,99.90
2023-07-14T06:22:56.884Z,99.90
2023-07-14T06:25:23.728Z,99.90
2023-07-14T06:27:50.525Z,99.90
2023-07-14T06:30:17.372Z,99.90
2023-07-14T06:32:44.281Z,99.90
2023-07-14T06:35:11.354Z,99.90
2023-07-14T06:37:38.298Z,99.90
2023-07-14T06:40:05.893Z,99.90
2023-07-14T06:42:32.875Z,99.90
2023-07-14T06:44:59.685Z,99.90
2023-07-14T06:47:26.483Z,99.90
2023-07-14T06:49:53.270Z,99.90
2023-07-14T06:52:20.076Z,99.90
2023-07-14T06:54:46.806Z,99.90
2023-07-14T06:57:13.598Z,99.90
2023-07-14T06:59:40.521Z,99.90
2023-07-14T07:02:10.543Z,99.90
2023-07-14T07:04:37.374Z,99.90
2023-07-14T07:07:05.273Z,99.90
2023-07-14T07:09:32.024Z,99.90
2023-07-14T07:11:58.818Z,99.90
2023-07-14T07:14:25.619Z,99.90
2023-07-14T07:16:52.518Z,99.90
2023-07-14T07:19:19.322Z,99.90
2023-07-14T07:21:46.093Z,99.90
2023-07-14T07:24:12.854Z,99.90
2023-07-14T07:26:41.778Z,99.90
2023-07-14T07:29:08.961Z,99.90
2023-07-14T07:31:35.963Z,99.90
2023-07-14T07:34:02.806Z,99.90
2023-07-14T07:36:29.680Z,99.90
2023-07-14T07:38:56.427Z,99.90
2023-07-14T07:41:25.843Z,99.90
2023-07-14T07:43:53.439Z,99.90
2023-07-14T07:46:20.339Z,99.90
2023-07-14T07:48:47.320Z,99.90
2023-07-14T07:51:15.757Z,99.90
2023-07-14T07:53:42.666Z,99.90
2023-07-14T07:56:10.380Z,99.90
2023-07-14T07:58:37.336Z,99.90
2023-07-14T08:01:06.107Z,99.90
2023-07-14T08:03:34.391Z,99.90
2023-07-14T08:06:06.780Z,99.90
2023-07-14T08:08:34.413Z,99.90
2023-07-14T08:11:01.732Z,99.90
2023-07-14T08:13:28.801Z,99.90
2023-07-14T08:15:56.756Z,99.90
2023-07-14T08:18:24.193Z,99.90
2023-07-14T08:20:51.102Z,99.90
2023-07-14T08:23:19.805Z,99.90
2023-07-14T08:25:55.684Z,99.90
2023-07-14T08:28:22.685Z,99.90
2023-07-14T08:30:50.632Z,99.90
2023-07-14T08:33:21.773Z,99.90
2023-07-14T08:35:52.985Z,99.90
2023-07-14T08:38:20.205Z,99.90
2023-07-14T08:41:14.745Z,99.90
2023-07-14T08:43:50.299Z,99.90
2023-07-14T08:46:31.552Z,99.90
2023-07-14T08:49:25.947Z,99.90
2023-07-14T08:52:02.846Z,99.90
2023-07-14T08:54:45.168Z,99.90
2023-07-14T08:57:17.576Z,99.90
2023-07-14T08:59:46.040Z,99.90
2023-07-14T09:02:38.566Z,99.90
2023-07-14T09:05:13.359Z,99.90
2023-07-14T09:07:43.072Z,99.90
2023-07-14T09:10:12.439Z,99.90
2023-07-14T09:12:48.730Z,99.90
2023-07-14T09:15:22.751Z,99.90
2023-07-14T09:18:24.537Z,99.90
2023-07-14T09:21:13.292Z,99.90
2023-07-14T09:23:58.446Z,99.90
2023-07-14T09:26:34.257Z,99.90
2023-07-14T09:29:11.463Z,99.90
2023-07-14T09:31:57.610Z,99.90
2023-07-14T09:34:35.369Z,99.90
2023-07-14T09:37:09.342Z,99.50
2023-07-14T09:39:41.886Z,99.30
2023-07-14T09:42:35.549Z,98.90
2023-07-14T09:45:14.368Z,98.50
2023-07-14T09:47:45.765Z,97.90
2023-07-14T09:50:15.619Z,98.10
2023-07-14T09:52:57.260Z,98.10
2023-07-14T09:55:25.926Z,97.50
2023-07-14T09:58:09.813Z,95.60
2023-07-14T10:00:42.178Z,95.90
2023-07-14T10:03:12.686Z,95.80
2023-07-14T10:05:55.168Z,95.00
2023-07-14T10:08:43.526Z,95.40
2023-07-14T10:11:23.756Z,95.20
2023-07-14T10:14:05.301Z,95.20
2023-07-14T10:16:33.241Z,94.90
2023-07-14T10:19:06.570Z,94.30
2023-07-14T10:21:35.739Z,94.70
2023-07-14T10:24:04.589Z,94.90
2023-07-14T10:26:41.138Z,94.80
2023-07-14T10:29:18.759Z,94.70
2023-07-14T10:31:55.344Z,94.40
2023-07-14T10:34:43.374Z,93.80
2023-07-14T10:37:20.493Z,93.80
2023-07-14T10:39:50.931Z,93.60
2023-07-14T10:42:22.420Z,93.60
2023-07-14T10:44:50.346Z,93.80
2023-07-14T10:47:27.601Z,93.20
2023-07-14T10:50:04.483Z,92.90
2023-07-14T10:52:38.987Z,92.70
2023-07-14T10:55:06.023Z,92.50
2023-07-14T10:57:49.338Z,92.50
2023-07-14T11:00:41.522Z,92.20
2023-07-14T11:03:22.288Z,91.20
2023-07-14T11:05:59.296Z,90.80
2023-07-14T11:08:29.092Z,90.40
2023-07-14T11:11:22.867Z,90.80
2023-07-14T11:14:07.881Z,91.20
2023-07-14T11:16:47.533Z,91.60
2023-07-14T11:19:46.561Z,91.60
2023-07-14T11:22:36.214Z,91.00
2023-07-14T11:25:22.583Z,91.00
2023-07-14T11:27:49.245Z,90.40
2023-07-14T11:30:22.918Z,90.20
2023-07-14T11:33:27.992Z,90.10
2023-07-14T11:36:11.008Z,90.00
2023-07-14T11:38:54.559Z,90.00
2023-07-14T11:41:22.078Z,89.70
2023-07-14T11:43:49.765Z,88.40
2023-07-14T11:46:20.559Z,87.20
2023-07-14T11:49:03.405Z,86.40
2023-07-14T11:51:50.373Z,84.40
2023-07-14T11:54:24.841Z,83.60
2023-07-14T11:57:08.509Z,81.90
2023-07-14T11:59:35.943Z,81.90
2023-07-14T12:02:38.995Z,81.70
2023-07-14T12:05:14.899Z,81.80
2023-07-14T12:08:03.681Z,80.90
2023-07-14T12:10:39.415Z,81.60
2023-07-14T12:13:34.329Z,80.20
2023-07-14T12:16:01.171Z,81.10
2023-07-14T12:18:33.811Z,79.50
2023-07-14T12:21:57.729Z,77.00
2023-07-14T12:24:30.191Z,72.90
2023-07-14T12:27:19.044Z,71.10
2023-07-14T12:29:58.058Z,69.30
2023-07-14T12:32:25.471Z,69.90
2023-07-14T12:34:52.283Z,69.70
2023-07-14T12:37:20.663Z,68.50
2023-07-14T12:39:54.619Z,68.90
2023-07-14T12:42:22.559Z,68.60
2023-07-14T12:44:53.924Z,69.00
2023-07-14T12:47:21.647Z,68.60
2023-07-14T12:49:51.813Z,67.20
2023-07-14T12:52:24.726Z,65.70
2023-07-14T12:54:51.534Z,63.70
2023-07-14T12:57:19.495Z,63.30
2023-07-14T12:59:51.064Z,63.70
2023-07-14T13:02:18.558Z,63.00
2023-07-14T13:04:46.493Z,63.00
2023-07-14T13:07:15.317Z,62.60
2023-07-14T13:09:42.640Z,62.20
2023-07-14T13:12:14.901Z,61.80
2023-07-14T13:14:51.746Z,61.40
2023-07-14T13:17:26.301Z,60.90
2023-07-14T13:19:53.313Z,61.60
2023-07-14T13:22:28.868Z,61.10
2023-07-14T13:25:18.722Z,60.20
2023-07-14T13:27:45.816Z,60.40
2023-07-14T13:30:23.019Z,60.60
2023-07-14T13:32:54.212Z,61.00
2023-07-14T13:35:34.280Z,61.20
2023-07-14T13:38:07.289Z,61.40
2023-07-14T13:40:39.624Z,61.10
2023-07-14T13:43:16.686Z,60.70
2023-07-14T13:45:43.566Z,59.00
2023-07-14T13:48:30.928Z,59.70
2023-07-14T13:50:57.765Z,58.40
2023-07-14T13:53:24.531Z,58.90
2023-07-14T13:55:51.315Z,59.00
2023-07-14T13:58:18.139Z,58.30
2023-07-14T14:00:47.583Z,57.70
2023-07-14T14:03:15.762Z,57.50
2023-07-14T14:05:43.983Z,56.60
2023-07-14T14:08:14.112Z,56.90
2023-07-14T14:10:40.834Z,57.20
2023-07-14T14:13:07.667Z,57.80
2023-07-14T14:15:38.749Z,58.50
2023-07-14T14:18:11.716Z,59.20
2023-07-14T14:20:38.575Z,59.20
2023-07-14T14:23:05.380Z,59.20
2023-07-14T14:25:34.387Z,58.90
2023-07-14T14:28:01.494Z,58.90
2023-07-14T14:30:39.797Z,59.10
2023-07-14T14:33:12.985Z,59.40
2023-07-14T14:35:40.141Z,59.20
2023-07-14T14:38:42.523Z,58.90
2023-07-14T14:41:37.919Z,58.60
2023-07-14T14:44:22.627Z,58.40
2023-07-14T14:46:49.506Z,58.60
2023-07-14T14:49:17.133Z,58.30
2023-07-14T14:51:44.252Z,58.60
2023-07-14T14:54:11.095Z,58.50
2023-07-14T14:56:40.917Z,57.80
2023-07-14T14:59:23.031Z,57.40
2023-07-14T15:01:50.314Z,57.40
2023-07-14T15:04:20.061Z,56.70
2023-07-14T15:06:47.788Z,55.80
2023-07-14T15:09:15.973Z,55.40
2023-07-14T15:11:48.504Z,53.80
2023-07-14T15:14:35.307Z,53.70
2023-07-14T15:17:07.793Z,53.10
2023-07-14T15:19:35.071Z,53.20
2023-07-14T15:22:01.840Z,53.10
2023-07-14T15:24:28.590Z,53.30
2023-07-14T15:26:55.357Z,52.30
2023-07-14T15:29:22.616Z,52.40
2023-07-14T15:31:49.541Z,52.90
2023-07-14T15:34:18.384Z,52.60
2023-07-14T15:36:45.571Z,52.80
2023-07-14T15:39:14.752Z,52.70
2023-07-14T15:41:43.125Z,52.20
2023-07-14T15:44:20.329Z,51.60
2023-07-14T15:46:47.306Z,52.00
2023-07-14T15:49:18.282Z,51.60
2023-07-14T15:51:45.749Z,51.10
2023-07-14T15:54:29.444Z,51.30
2023-07-14T15:57:01.829Z,51.10
2023-07-14T15:59:30.265Z,51.50
2023-07-14T16:01:57.160Z,52.00
2023-07-14T16:04:24.417Z,52.40
2023-07-14T16:06:53.373Z,52.10
2023-07-14T16:09:28.739Z,51.80
2023-07-14T16:11:56.035Z,51.80
2023-07-14T16:14:22.808Z,51.60
2023-07-14T16:16:49.685Z,51.40
2023-07-14T16:19:16.445Z,51.50
2023-07-14T16:21:47.502Z,50.80
2023-07-14T16:24:21.452Z,50.20
2023-07-14T16:26:52.614Z,49.50
2023-07-14T16:29:20.804Z,49.40
2023-07-14T16:31:47.621Z,49.20
2023-07-14T16:34:14.351Z,49.70
2023-07-14T16:36:41.304Z,50.00
2023-07-14T16:39:18.157Z,50.30
2023-07-14T16:41:44.937Z,50.70
2023-07-14T16:44:16.424Z,50.70
2023-07-14T16:46:53.462Z,50.70
2023-07-14T16:49:20.277Z,50.60
2023-07-14T16:51:47.651Z,50.90
2023-07-14T16:54:25.620Z,51.30
2023-07-14T16:56:53.286Z,51.30
2023-07-14T16:59:20.447Z,51.10
2023-07-14T17:01:47.461Z,51.50
2023-07-14T17:04:22.360Z,51.50
2023-07-14T17:06:52.589Z,51.50
2023-07-14T17:09:22.166Z,51.70
2023-07-14T17:11:50.277Z,51.60
2023-07-14T17:14:21.428Z,51.70
2023-07-14T17:16:48.642Z,51.70
2023-07-14T17:19:17.939Z,52.10
2023-07-14T17:21:49.523Z,52.60
2023-07-14T17:24:18.030Z,52.90
2023-07-14T17:26:44.969Z,53.40
2023-07-14T17:29:20.883Z,53.90
2023-07-14T17:31:48.158Z,54.30
2023-07-14T17:34:15.053Z,54.60
2023-07-14T17:36:42.772Z,54.70
2023-07-14T17:39:25.444Z,54.80
2023-07-14T17:41:55.289Z,55.10
2023-07-14T17:44:24.461Z,55.30
2023-07-14T17:46:52.262Z,55.30
2023-07-14T17:49:19.527Z,55.50
2023-07-14T17:51:51.762Z,55.60
2023-07-14T17:54:26.053Z,55.70
2023-07-14T17:56:54.235Z,55.90
2023-07-14T17:59:24.123Z,56.00
2023-07-14T18:01:50.860Z,56.00
2023-07-14T18:04:17.774Z,56.10
2023-07-14T18:06:44.604Z,56.10
2023-07-14T18:09:12.764Z,56.80
2023-07-14T18:11:42.414Z,56.20
2023-07-14T18:14:21.446Z,56.40
2023-07-14T18:16:49.550Z,56.90
2023-07-14T18:19:18.290Z,56.30
2023-07-14T18:21:54.240Z,56.40
2023-07-14T18:24:41.739Z,56.40
2023-07-14T18:27:15.629Z,56.40
2023-07-14T18:29:42.693Z,56.50
2023-07-14T18:32:11.337Z,56.60
2023-07-14T18:34:38.200Z,56.80
2023-07-14T18:37:12.643Z,56.90
2023-07-14T18:39:39.632Z,57.20
2023-07-14T18:42:11.813Z,57.20
2023-07-14T18:44:38.667Z,57.40
2023-07-14T18:47:05.902Z,57.60
2023-07-14T18:49:32.648Z,57.90
2023-07-14T18:51:59.390Z,58.10
2023-07-14T18:54:26.291Z,58.30
2023-07-14T18:56:53.200Z,58.50
2023-07-14T18:59:20.261Z,58.70
2023-07-14T19:01:48.748Z,58.80
2023-07-14T19:04:17.551Z,58.90
2023-07-14T19:06:45.661Z,59.10
2023-07-14T19:09:18.236Z,59.20
2023-07-14T19:11:57.144Z,59.40
2023-07-14T19:14:36.287Z,59.40
2023-07-14T19:17:03.367Z,59.70
2023-07-14T19:19:30.172Z,59.80
2023-07-14T19:21:57.167Z,59.90
2023-07-14T19:24:24.475Z,60.00
2023-07-14T19:26:51.623Z,60.00
2023-07-14T19:29:21.570Z,60.30
2023-07-14T19:31:48.337Z,60.40
2023-07-14T19:34:30.455Z,60.30
2023-07-14T19:36:58.077Z,61.20
2023-07-14T19:39:24.922Z,60.70
2023-07-14T19:41:53.596Z,60.90
2023-07-14T19:44:21.365Z,61.10
2023-07-14T19:46:49.776Z,61.20
2023-07-14T19:49:19.027Z,61.40
2023-07-14T19:51:52.134Z,61.90
2023-07-14T19:54:20.740Z,62.00
2023-07-14T19:56:48.237Z,62.20
2023-07-14T19:59:17.425Z,62.20
2023-07-14T20:01:48.932Z,62.20
2023-07-14T20:04:15.760Z,62.50
2023-07-14T20:06:42.534Z,62.30
2023-07-14T20:09:09.332Z,62.50
2023-07-14T20:11:37.556Z,62.60
2023-07-14T20:14:28.918Z,62.50
2023-07-14T20:16:55.835Z,62.80
2023-07-14T20:19:22.757Z,63.40
2023-07-14T20:21:49.532Z,63.00
2023-07-14T20:24:20.669Z,63.10
2023-07-14T20:26:47.754Z,63.00
2023-07-14T20:29:14.465Z,63.30
2023-07-14T20:31:43.120Z,63.30
2023-07-14T20:34:17.501Z,63.30
2023-07-14T20:36:45.721Z,63.60
2023-07-14T20:39:12.859Z,63.60
2023-07-14T20:41:40.866Z,63.70
2023-07-14T20:44:09.382Z,64.00
2023-07-14T20:46:38.360Z,64.10
2023-07-14T20:49:17.541Z,64.30
2023-07-14T20:51:46.793Z,64.30
2023-07-14T20:54:14.646Z,64.60
2023-07-14T20:56:41.651Z,64.40
2023-07-14T20:59:08.441Z,64.40
2023-07-14T21:01:36.140Z,64.40
2023-07-14T21:04:18.631Z,64.40
2023-07-14T21:06:45.443Z,64.30
2023-07-14T21:09:12.142Z,64.60
2023-07-14T21:11:39.285Z,64.80
2023-07-14T21:14:10.763Z,64.70
2023-07-14T21:16:37.934Z,64.70
2023-07-14T21:19:04.995Z,64.80
2023-07-14T21:21:34.551Z,64.70
2023-07-14T21:24:10.356Z,64.80
2023-07-14T21:26:37.176Z,65.00
2023-07-14T21:29:06.024Z,65.10
2023-07-14T21:31:35.202Z,65.20
2023-07-14T21:34:02.539Z,65.30
2023-07-14T21:36:29.603Z,65.40
2023-07-14T21:38:59.827Z,65.40
2023-07-14T21:41:26.690Z,65.50
2023-07-14T21:43:56.214Z,65.60
2023-07-14T21:46:23.097Z,65.70
2023-07-14T21:48:50.077Z,65.70
2023-07-14T21:51:25.418Z,65.80
2023-07-14T21:53:54.835Z,66.10
2023-07-14T21:56:22.834Z,66.10
2023-07-14T21:58:50.050Z,66.40
2023-07-14T22:01:26.634Z,66.40
2023-07-14T22:03:54.643Z,66.60
2023-07-14T22:06:22.529Z,66.60
2023-07-14T22:08:49.305Z,66.80
2023-07-14T22:11:17.853Z,66.90
2023-07-14T22:13:44.893Z,67.00
2023-07-14T22:16:16.565Z,67.30
2023-07-14T22:18:46.727Z,67.50
2023-07-14T22:21:26.607Z,67.70
2023-07-14T22:23:53.819Z,68.00
2023-07-14T22:26:23.037Z,68.00
2023-07-14T22:28:50.686Z,68.30
2023-07-14T22:31:22.400Z,68.40
2023-07-14T22:33:50.174Z,68.40
2023-07-14T22:36:18.578Z,68.60
2023-07-14T22:38:45.753Z,68.80
2023-07-14T22:41:35.225Z,68.80
2023-07-14T22:44:03.903Z,69.00
2023-07-14T22:46:32.164Z,69.10
2023-07-14T22:48:59.686Z,69.00
2023-07-14T22:51:28.325Z,69.20
2023-07-14T22:53:55.828Z,69.20
2023-07-14T22:56:23.442Z,69.10
2023-07-14T22:58:50.240Z,69.30
2023-07-14T23:01:21.441Z,69.40
2023-07-14T23:03:49.620Z,69.50
2023-07-14T23:06:19.099Z,70.00
2023-07-14T23:08:50.692Z,69.70
2023-07-14T23:11:23.317Z,69.70
2023-07-14T23:13:50.428Z,69.80
2023-07-14T23:16:20.404Z,70.00
2023-07-14T23:18:47.130Z,70.10
2023-07-14T23:21:29.382Z,70.20
2023-07-14T23:23:57.120Z,70.10
2023-07-14T23:26:27.277Z,70.50
2023-07-14T23:28:54.706Z,70.60
2023-07-14T23:31:30.876Z,70.60
2023-07-14T23:33:57.737Z,70.80
2023-07-14T23:36:25.709Z,70.60
2023-07-14T23:38:53.016Z,70.70
2023-07-14T23:41:28.597Z,70.90
2023-07-14T23:43:55.740Z,70.90
2023-07-14T23:46:24.508Z,71.00
2023-07-14T23:48:52.563Z,71.10
2023-07-14T23:51:32.137Z,71.30
2023-07-14T23:53:59.295Z,71.60
2023-07-14T23:56:26.544Z,71.50
2023-07-14T23:58:53.281Z,71.60
